Terminal Aerodrome Forecast
Issued by NWS

Home | Current Version | Previous Version | Text Only | Print | Product List | Glossary On
Versions: 1 2 3 4 5 6 7 8 9 10 11 12 13 14 15 16 17 18 19 20 21 22 23 24 25 26 27 28 29 30 31 32 33
261
FTUS46 KPQR 300239 AAB
TAFONP
TAF AMD
KONP 300239Z 3003/3024 21011KT P6SM -RA SCT008 BKN015
     FM300500 21014G20KT P6SM -RA BKN008 OVC015
     FM301300 32007KT P6SM -RA BKN015 OVC040
     FM302000 30011KT P6SM VCSH SCT015 BKN040=

USA.gov is the U.S. government's official web portal to all federal, state and local government web resources and services.